Time;durP1;ratioP1;P1;durP2;ratioP2;P2;SDS_P1;SDS_P2;PMS_P1;PMS_P2;Temp;Humidity;BMP_temperature;BMP_pressure;BME280_temperature;BME280_humidity;BME280_pressure;Samples;Min_cycle;Max_cycle;Signal;HPM_P1;HPM_P2
2023/07/27 00:01:26;;;;;;;2.13;0.82;;;;;;;27.31;47.48;100854.41;5062955;28;20481;-59
2023/07/27 00:03:54;;;;;;;1.52;0.85;;;;;;;27.30;47.57;100845.38;5072479;28;20048;-59
2023/07/27 00:06:22;;;;;;;2.58;0.80;;;;;;;27.32;47.43;100853.38;5069520;28;20519;-58
2023/07/27 00:08:49;;;;;;;2.58;0.70;;;;;;;27.32;47.61;100851.50;5067093;28;20396;-57
2023/07/27 00:11:17;;;;;;;1.98;0.70;;;;;;;27.32;47.92;100851.50;5062600;28;20045;-57
2023/07/27 00:13:45;;;;;;;1.40;0.40;;;;;;;27.34;47.91;100860.28;5072489;28;20053;-57
2023/07/27 00:16:12;;;;;;;2.25;0.77;;;;;;;27.35;47.66;100842.97;5063600;28;20488;-57
2023/07/27 00:18:40;;;;;;;1.90;0.77;;;;;;;27.34;47.99;100845.84;5066530;28;20049;-59
2023/07/27 00:21:07;;;;;;;1.65;0.70;;;;;;;27.36;47.57;100841.09;5070748;28;20049;-59
2023/07/27 00:23:34;;;;;;;1.98;0.82;;;;;;;27.36;47.41;100852.81;5059453;28;20060;-59
2023/07/27 00:26:02;;;;;;;1.58;0.60;;;;;;;27.38;47.76;100843.63;5070431;28;20056;-59
2023/07/27 00:28:29;;;;;;;2.58;0.93;;;;;;;27.38;47.78;100847.19;5066632;28;20052;-59
2023/07/27 00:30:56;;;;;;;2.92;0.90;;;;;;;27.38;47.49;100851.78;5062237;28;20500;-59
2023/07/27 00:33:24;;;;;;;2.10;0.80;;;;;;;27.40;47.72;100852.44;5071707;28;20061;-59
2023/07/27 00:35:56;;;;;;;1.60;0.60;;;;;;;27.40;47.92;100847.84;5068100;28;20057;-59
2023/07/27 00:38:29;;;;;;;2.70;0.85;;;;;;;27.40;47.46;100847.84;5067645;28;20052;-59
2023/07/27 00:40:56;;;;;;;2.58;0.60;;;;;;;27.40;47.62;100849.72;5059773;28;20531;-59
2023/07/27 00:43:24;;;;;;;2.22;0.77;;;;;;;27.41;47.75;100845.97;5069624;28;20045;-59
2023/07/27 00:45:51;;;;;;;1.50;0.60;;;;;;;27.41;47.80;100852.25;5063463;28;20044;-59
2023/07/27 00:48:20;;;;;;;1.73;0.75;;;;;;;27.42;47.47;100848.50;5063735;28;20049;-56
2023/07/27 00:50:47;;;;;;;2.15;1.15;;;;;;;27.41;47.53;100860.41;5058584;28;20060;-57
2023/07/27 00:53:16;;;;;;;1.73;0.80;;;;;;;27.43;47.70;100860.22;5061889;28;20044;-57
2023/07/27 00:55:44;;;;;;;1.83;0.60;;;;;;;27.41;47.87;100849.53;5068120;28;20045;-57
2023/07/27 00:58:12;;;;;;;2.00;0.70;;;;;;;27.42;47.70;100856.66;5071361;28;20053;-57
2023/07/27 01:00:44;;;;;;;2.35;0.73;;;;;;;27.43;47.79;100854.78;5058586;28;20053;-57
2023/07/27 01:03:11;;;;;;;2.50;0.80;;;;;;;27.43;47.91;100858.38;5070333;28;20377;-57
2023/07/27 01:05:39;;;;;;;2.53;0.70;;;;;;;27.43;47.53;100852.94;5060779;28;20053;-57
2023/07/27 01:08:07;;;;;;;1.70;0.65;;;;;;;27.44;47.74;100857.34;5068592;28;20048;-59
2023/07/27 01:10:40;;;;;;;1.83;0.85;;;;;;;27.45;47.59;100858.16;5060082;28;20045;-59
2023/07/27 01:13:25;;;;;;;1.65;0.68;;;;;;;27.45;47.62;100867.16;5070317;28;20044;-59
2023/07/27 01:15:58;;;;;;;2.95;0.95;;;;;;;27.45;47.72;100861.72;5068001;28;20057;-59
2023/07/27 01:18:46;;;;;;;2.40;0.90;;;;;;;27.45;47.54;100867.16;5060010;28;20049;-59
2023/07/27 01:21:19;;;;;;;2.50;0.80;;;;;;;27.47;47.58;100864.28;5068637;28;20112;-59
2023/07/27 01:24:06;;;;;;;3.45;1.05;;;;;;;27.45;47.65;100867.16;5067791;28;20045;-59
2023/07/27 01:26:46;;;;;;;2.17;0.63;;;;;;;27.46;47.67;100854.41;5060001;28;20056;-58
2023/07/27 01:30:02;;;;;;;1.80;0.60;;;;;;;27.46;48.00;100860.69;5079150;28;20048;-59
2023/07/27 01:32:34;;;;;;;1.25;0.57;;;;;;;27.47;47.56;100864.28;5075309;28;20531;-59
2023/07/27 01:35:03;;;;;;;1.88;0.90;;;;;;;27.47;47.81;100865.13;5062311;28;20048;-59
2023/07/27 01:37:33;;;;;;;2.05;1.00;;;;;;;27.48;47.83;100860.53;5062038;28;20060;-59
2023/07/27 01:40:03;;;;;;;1.90;0.60;;;;;;;27.48;47.82;100868.69;5070903;28;20052;-59
2023/07/27 01:42:32;;;;;;;2.28;0.70;;;;;;;27.48;47.98;100871.41;5061103;28;20037;-59
2023/07/27 01:45:01;;;;;;;1.90;0.85;;;;;;;27.49;47.91;100870.38;5065330;28;20049;-59
2023/07/27 01:47:29;;;;;;;2.90;1.10;;;;;;;27.49;48.15;100870.38;5057867;28;20059;-56
2023/07/27 01:49:58;;;;;;;1.85;0.65;;;;;;;27.50;47.91;100877.50;5069164;28;20055;-56
2023/07/27 01:52:26;;;;;;;2.17;0.70;;;;;;;27.49;47.79;100873.09;5061399;28;20036;-57
2023/07/27 01:54:57;;;;;;;2.35;0.98;;;;;;;27.49;47.91;100873.94;5064724;28;20059;-56
2023/07/27 01:57:24;;;;;;;1.55;0.57;;;;;;;27.50;47.88;100877.50;5069056;28;20044;-59
2023/07/27 01:59:53;;;;;;;2.17;0.82;;;;;;;27.49;47.82;100882.09;5057383;28;20048;-59
2023/07/27 02:02:21;;;;;;;2.10;0.82;;;;;;;27.50;48.18;100883.75;5056683;28;20052;-59
2023/07/27 02:04:50;;;;;;;2.28;0.95;;;;;;;27.49;47.81;100884.81;5064135;28;20048;-59
2023/07/27 02:07:19;;;;;;;3.20;1.05;;;;;;;27.50;47.86;100891.94;5067561;28;20045;-56
2023/07/27 02:09:46;;;;;;;3.28;1.00;;;;;;;27.51;47.96;100890.06;5057036;28;20067;-55
2023/07/27 02:12:25;;;;;;;2.47;0.80;;;;;;;27.51;48.06;100890.91;5059281;28;20057;-57
2023/07/27 02:14:58;;;;;;;3.03;1.02;;;;;;;27.51;48.19;100892.78;5061542;28;20053;-57
2023/07/27 02:17:39;;;;;;;2.72;0.90;;;;;;;27.51;47.96;100890.91;5069906;28;20063;-59
2023/07/27 02:20:13;;;;;;;2.95;0.88;;;;;;;27.52;48.04;100894.47;5060238;28;20416;-59
2023/07/27 02:22:42;;;;;;;2.63;0.93;;;;;;;27.51;48.38;100893.63;5065587;28;20040;-59
2023/07/27 02:25:10;;;;;;;1.73;0.70;;;;;;;27.52;48.12;100894.47;5058921;28;20049;-59
2023/07/27 02:27:37;;;;;;;2.85;0.73;;;;;;;27.52;48.15;100899.91;5066252;28;20060;-59
2023/07/27 02:30:05;;;;;;;1.90;0.90;;;;;;;27.51;48.03;100899.06;5056238;28;20416;-59
2023/07/27 02:32:33;;;;;;;3.05;0.70;;;;;;;27.51;48.18;100893.63;5064542;28;20043;-59
2023/07/27 02:35:00;;;;;;;3.35;1.00;;;;;;;27.52;48.13;100895.31;5057017;28;20053;-59
2023/07/27 02:37:28;;;;;;;1.70;0.70;;;;;;;27.51;48.01;100895.50;5066788;28;20525;-57
2023/07/27 02:39:55;;;;;;;2.38;0.98;;;;;;;27.52;48.06;100895.31;5058467;28;20048;-57
2023/07/27 02:42:22;;;;;;;2.00;0.90;;;;;;;27.52;48.09;100891.75;5062277;28;20378;-57
2023/07/27 02:44:50;;;;;;;2.63;0.90;;;;;;;27.52;48.26;100889.88;5068024;28;20057;-56
2023/07/27 02:47:18;;;;;;;2.15;0.80;;;;;;;27.52;48.16;100895.31;5064765;28;20049;-59
2023/07/27 02:49:46;;;;;;;3.75;0.95;;;;;;;27.52;48.36;100889.88;5072259;28;20053;-59
2023/07/27 02:52:13;;;;;;;2.35;0.80;;;;;;;27.52;47.98;100895.31;5061441;28;20053;-59
2023/07/27 02:54:41;;;;;;;2.45;1.20;;;;;;;27.51;48.14;100900.97;5056120;28;20051;-59
2023/07/27 02:57:10;;;;;;;3.03;1.20;;;;;;;27.52;48.27;100908.06;5066520;28;20049;-57
2023/07/27 02:59:43;;;;;;;2.05;0.80;;;;;;;27.53;48.27;100917.91;5064212;28;20057;-57
2023/07/27 03:02:11;;;;;;;2.92;1.25;;;;;;;27.52;48.36;100906.19;5066606;28;20051;-57
2023/07/27 03:04:41;;;;;;;3.00;1.13;;;;;;;27.52;47.97;100908.06;5057129;28;20049;-57
2023/07/27 03:07:09;;;;;;;2.17;1.17;;;;;;;27.53;48.16;100907.88;5055828;28;20052;-57
2023/07/27 03:09:37;;;;;;;3.25;0.85;;;;;;;27.52;48.30;100911.63;5063279;28;20052;-57
2023/07/27 03:12:05;;;;;;;2.28;1.25;;;;;;;27.52;47.97;100911.63;5061145;28;20041;-57
2023/07/27 03:14:32;;;;;;;2.95;1.08;;;;;;;27.51;48.08;100907.22;5066681;28;20076;-57
2023/07/27 03:17:00;;;;;;;1.92;0.70;;;;;;;27.53;48.39;100920.63;5066670;28;20041;-57
2023/07/27 03:19:27;;;;;;;1.92;0.75;;;;;;;27.52;47.96;100918.94;5067250;28;20412;-57
2023/07/27 03:21:54;;;;;;;2.58;1.20;;;;;;;27.52;48.23;100925.22;5059585;28;20508;-57
2023/07/27 03:24:22;;;;;;;2.15;0.90;;;;;;;27.53;48.36;100943.22;5057939;28;20049;-57
2023/07/27 03:26:49;;;;;;;2.45;1.30;;;;;;;27.53;48.20;100931.50;5065753;28;20053;-59
2023/07/27 03:29:17;;;;;;;4.10;1.30;;;;;;;27.53;48.24;100936.94;5067600;28;20053;-59
2023/07/27 03:31:44;;;;;;;2.20;1.00;;;;;;;27.53;48.36;100936.94;5068634;28;20515;-59
2023/07/27 03:34:12;;;;;;;2.55;1.00;;;;;;;27.52;48.25;100937.97;5062669;28;20481;-59
2023/07/27 03:36:39;;;;;;;2.42;1.10;;;;;;;27.52;48.01;100941.56;5068565;28;20049;-57
2023/07/27 03:39:06;;;;;;;2.55;1.00;;;;;;;27.52;48.35;100943.44;5062653;28;20056;-57
2023/07/27 03:41:34;;;;;;;3.33;1.30;;;;;;;27.53;48.15;100936.94;5059599;28;20053;-57
2023/07/27 03:44:01;;;;;;;2.42;0.93;;;;;;;27.53;47.99;100934.22;5068850;28;20051;-57
2023/07/27 03:46:28;;;;;;;2.47;1.08;;;;;;;27.52;48.05;100938.81;5059404;28;20053;-59
2023/07/27 03:48:58;;;;;;;2.58;1.10;;;;;;;27.52;47.82;100936.09;5063264;28;20404;-59
2023/07/27 03:51:25;;;;;;;3.05;1.00;;;;;;;27.53;47.94;100948.66;5066657;28;20045;-59
2023/07/27 03:53:52;;;;;;;3.45;1.00;;;;;;;27.53;48.24;100942.38;5056952;28;20049;-59
2023/07/27 03:56:32;;;;;;;3.42;1.50;;;;;;;27.52;47.80;100949.69;5067330;28;20053;-58
2023/07/27 03:59:00;;;;;;;3.50;1.20;;;;;;;27.53;47.83;100961.44;5058277;28;20049;-59
2023/07/27 04:01:28;;;;;;;1.88;0.70;;;;;;;27.52;48.03;100957.03;5071913;28;20397;-59
2023/07/27 04:03:55;;;;;;;2.67;1.00;;;;;;;27.53;47.69;100964.13;5061086;28;20044;-59
2023/07/27 04:06:23;;;;;;;2.20;1.00;;;;;;;27.52;47.71;100968.75;5061400;28;20045;-57
2023/07/27 04:08:50;;;;;;;2.80;1.00;;;;;;;27.52;48.19;100960.59;5065812;28;20041;-57
2023/07/27 04:11:18;;;;;;;3.85;1.20;;;;;;;27.53;47.80;100970.41;5058547;28;20053;-57
2023/07/27 04:13:45;;;;;;;2.90;0.90;;;;;;;27.52;47.75;100973.34;5071764;28;20041;-57
2023/07/27 04:16:13;;;;;;;4.07;1.20;;;;;;;27.53;48.09;100972.31;5058844;28;20049;-57
2023/07/27 04:18:40;;;;;;;2.35;1.00;;;;;;;27.52;47.77;100976.91;5066483;28;20051;-56
2023/07/27 04:21:08;;;;;;;3.00;1.10;;;;;;;27.52;47.94;100966.03;5060116;28;20056;-56
2023/07/27 04:23:35;;;;;;;3.10;1.08;;;;;;;27.52;48.01;100971.47;5072456;28;20405;-56
2023/07/27 04:26:03;;;;;;;2.33;1.02;;;;;;;27.52;47.68;100970.63;5063461;28;20048;-57
2023/07/27 04:28:30;;;;;;;4.03;1.25;;;;;;;27.51;47.97;100969.78;5064889;28;20045;-57
2023/07/27 04:30:58;;;;;;;2.85;1.20;;;;;;;27.53;47.69;100978.59;5071776;28;20067;-57
2023/07/27 04:33:25;;;;;;;1.83;0.90;;;;;;;27.52;47.96;100976.06;5059160;28;20048;-57
2023/07/27 04:35:53;;;;;;;2.45;1.00;;;;;;;27.53;47.88;100977.75;5069430;28;20052;-57
2023/07/27 04:38:20;;;;;;;3.25;1.00;;;;;;;27.52;47.91;100987.78;5058986;28;20056;-57
2023/07/27 04:40:47;;;;;;;2.65;1.05;;;;;;;27.52;47.91;100984.22;5068835;28;20072;-57
2023/07/27 04:43:15;;;;;;;2.03;0.80;;;;;;;27.52;48.00;100992.38;5060620;28;20045;-56
2023/07/27 04:45:45;;;;;;;1.95;0.90;;;;;;;27.52;48.01;100984.22;5068933;28;20128;-57
2023/07/27 04:48:12;;;;;;;2.75;1.15;;;;;;;27.52;47.91;100989.66;5067521;28;20059;-59
2023/07/27 04:50:39;;;;;;;2.58;1.13;;;;;;;27.52;48.01;100995.09;5058042;28;20053;-59
2023/07/27 04:53:07;;;;;;;2.63;0.93;;;;;;;27.52;47.80;100989.66;5070506;28;20056;-59
2023/07/27 04:55:34;;;;;;;2.13;0.85;;;;;;;27.50;48.11;101000.69;5069631;28;20048;-59
2023/07/27 04:58:02;;;;;;;1.95;0.63;;;;;;;27.52;48.07;100995.94;5070980;28;20492;-59
2023/07/27 05:00:29;;;;;;;1.60;0.80;;;;;;;27.52;48.13;101001.38;5060950;28;20056;-59
2023/07/27 05:02:57;;;;;;;2.28;1.10;;;;;;;27.51;47.82;101002.41;5068073;28;20044;-59
2023/07/27 05:05:25;;;;;;;2.83;1.10;;;;;;;27.51;47.87;100999.69;5062609;28;20045;-59
2023/07/27 05:07:52;;;;;;;2.10;0.80;;;;;;;27.51;48.12;101010.56;5064680;28;20414;-59
2023/07/27 05:10:19;;;;;;;2.40;1.00;;;;;;;27.49;47.93;101011.75;5070335;28;20037;-59
2023/07/27 05:12:47;;;;;;;2.75;1.30;;;;;;;27.44;47.93;101014.19;5060068;28;20045;-59
2023/07/27 05:15:14;;;;;;;6.18;1.20;;;;;;;27.36;47.64;101018.66;5068101;28;20456;-59
2023/07/27 05:17:42;;;;;;;3.65;1.48;;;;;;;27.32;47.59;101024.63;5066377;28;20519;-58
2023/07/27 05:20:10;;;;;;;2.58;1.20;;;;;;;27.25;47.78;101024.50;5060106;28;20041;-59
2023/07/27 05:22:37;;;;;;;2.33;0.95;;;;;;;27.20;47.80;101028.78;5071454;28;20045;-59
2023/07/27 05:25:05;;;;;;;2.45;0.93;;;;;;;27.16;47.70;101035.59;5061966;28;20048;-59
2023/07/27 05:27:33;;;;;;;3.05;1.20;;;;;;;27.11;47.66;101039.72;5064087;28;20041;-59
2023/07/27 05:30:00;;;;;;;2.30;0.98;;;;;;;27.07;47.69;101035.63;5070471;28;20040;-59
2023/07/27 05:32:27;;;;;;;2.80;0.88;;;;;;;27.05;47.61;101039.53;5059504;28;20051;-59
2023/07/27 05:34:55;;;;;;;2.78;0.93;;;;;;;27.01;47.61;101041.75;5067916;28;20554;-59
2023/07/27 05:37:22;;;;;;;2.22;1.10;;;;;;;26.99;47.97;101051.97;5066492;28;20048;-59
2023/07/27 05:39:49;;;;;;;2.42;1.00;;;;;;;26.96;47.91;101046.88;5059378;28;20053;-59
2023/07/27 05:42:17;;;;;;;3.53;1.10;;;;;;;26.94;48.04;101048.94;5071539;28;20059;-59
2023/07/27 05:44:44;;;;;;;2.28;0.95;;;;;;;26.94;48.01;101042.63;5062474;28;20037;-58
2023/07/27 05:47:13;;;;;;;2.70;0.80;;;;;;;26.92;48.11;101050.13;5063981;28;20049;-59
2023/07/27 05:49:40;;;;;;;3.33;0.98;;;;;;;26.89;48.00;101037.75;5067800;28;20052;-61
2023/07/27 05:52:08;;;;;;;2.50;0.80;;;;;;;26.89;48.08;101045.88;5070604;28;20071;-61
2023/07/27 05:54:35;;;;;;;2.33;1.15;;;;;;;26.89;48.11;101045.88;5067978;28;20041;-61
2023/07/27 05:57:03;;;;;;;2.80;0.95;;;;;;;26.88;48.18;101041.47;5066321;28;20044;-60
2023/07/27 05:59:30;;;;;;;2.58;0.90;;;;;;;26.88;48.23;101044.19;5059316;28;20068;-61
2023/07/27 06:01:57;;;;;;;3.22;0.90;;;;;;;26.87;48.15;101050.66;5055712;28;20056;-61
2023/07/27 06:04:27;;;;;;;3.03;1.05;;;;;;;26.86;48.04;101046.25;5070932;28;20044;-61
2023/07/27 06:06:55;;;;;;;3.47;1.00;;;;;;;26.86;47.90;101060.69;5070911;28;20052;-60
2023/07/27 06:09:22;;;;;;;2.40;0.73;;;;;;;26.83;48.03;101063.75;5056851;28;20063;-60
2023/07/27 06:11:49;;;;;;;2.78;1.25;;;;;;;26.82;48.18;101072.09;5069751;28;20047;-61
2023/07/27 06:14:17;;;;;;;2.10;0.80;;;;;;;26.81;48.03;101071.22;5059550;28;20049;-61
2023/07/27 06:16:45;;;;;;;1.80;0.82;;;;;;;26.80;48.39;101065.97;5073156;28;20044;-58
2023/07/27 06:19:12;;;;;;;3.38;1.10;;;;;;;26.80;48.23;101060.53;5058536;28;20045;-59
2023/07/27 06:21:39;;;;;;;3.25;1.00;;;;;;;26.81;48.14;101067.66;5068608;28;20056;-59
2023/07/27 06:24:08;;;;;;;4.70;1.15;;;;;;;26.79;48.36;101067.00;5061847;28;20392;-59
2023/07/27 06:26:35;;;;;;;5.78;1.20;;;;;;;26.76;48.46;101068.19;5062835;28;20045;-59
2023/07/27 06:29:02;;;;;;;2.85;1.15;;;;;;;26.79;48.55;101077.88;5069698;28;20052;-59
2023/07/27 06:31:30;;;;;;;4.60;1.20;;;;;;;26.79;48.41;101069.72;5058971;28;20056;-58
2023/07/27 06:33:57;;;;;;;4.55;1.45;;;;;;;26.70;48.50;101066.19;5061388;28;20496;-58
2023/07/27 06:36:25;;;;;;;2.60;1.00;;;;;;;26.69;48.40;101071.78;5062947;28;20049;-59
2023/07/27 06:38:52;;;;;;;5.75;1.50;;;;;;;26.69;48.33;101078.03;5069816;28;20048;-58
2023/07/27 06:41:25;;;;;;;2.75;1.30;;;;;;;26.71;48.59;101091.47;5058756;28;20049;-58
2023/07/27 06:43:52;;;;;;;3.10;1.27;;;;;;;26.73;48.63;101078.53;5060859;28;20052;-58
2023/07/27 06:46:20;;;;;;;4.75;2.03;;;;;;;26.71;48.67;101081.44;5070845;28;20055;-58
2023/07/27 06:48:48;;;;;;;5.03;1.98;;;;;;;26.72;48.96;101090.44;5069696;28;20040;-60
2023/07/27 06:51:15;;;;;;;3.88;1.90;;;;;;;26.67;48.90;101087.41;5067341;28;20045;-60
2023/07/27 06:53:43;;;;;;;3.70;1.60;;;;;;;26.59;49.12;101082.84;5068462;28;20496;-61
2023/07/27 06:56:11;;;;;;;3.40;1.60;;;;;;;26.50;49.34;101087.44;5070288;28;20063;-56
2023/07/27 06:58:38;;;;;;;3.35;1.50;;;;;;;26.42;49.23;101082.00;5069956;28;20051;-58
2023/07/27 07:01:05;;;;;;;3.03;1.35;;;;;;;26.36;49.28;101083.53;5066928;28;20056;-58
2023/07/27 07:03:33;;;;;;;2.53;1.15;;;;;;;26.34;49.35;101085.56;5068442;28;20040;-58
2023/07/27 07:06:00;;;;;;;3.83;1.30;;;;;;;26.33;49.57;101088.44;5061140;28;20072;-57
2023/07/27 07:08:29;;;;;;;3.28;1.40;;;;;;;26.30;49.71;101088.81;5069021;28;20044;-55
2023/07/27 07:10:56;;;;;;;4.53;1.35;;;;;;;26.27;49.54;101084.56;5059180;28;20053;-56
2023/07/27 07:13:24;;;;;;;4.18;1.40;;;;;;;26.22;49.75;101083.41;5067013;28;20056;-55
2023/07/27 07:15:52;;;;;;;6.40;1.55;;;;;;;26.18;49.89;101088.31;5060888;28;20049;-57
2023/07/27 07:18:19;;;;;;;2.90;1.00;;;;;;;26.18;50.02;101088.31;5069822;28;20407;-56
2023/07/27 07:20:46;;;;;;;4.93;1.50;;;;;;;26.15;49.82;101083.22;5060462;28;20051;-56
2023/07/27 07:23:17;;;;;;;3.03;1.25;;;;;;;26.11;50.24;101081.88;5072139;28;20055;-56
2023/07/27 07:25:44;;;;;;;4.53;1.23;;;;;;;26.09;50.25;101079.34;5069446;28;20044;-54
2023/07/27 07:28:12;;;;;;;3.58;1.17;;;;;;;26.11;50.24;101079.16;5057681;28;20052;-56
2023/07/27 07:30:41;;;;;;;3.50;1.20;;;;;;;26.13;50.21;101075.25;5067828;28;20063;-56
2023/07/27 07:33:09;;;;;;;3.42;1.15;;;;;;;26.21;50.08;101078.97;5063311;28;20420;-56
2023/07/27 07:35:38;;;;;;;2.72;1.30;;;;;;;26.30;50.02;101081.50;5063386;28;20053;-56
2023/07/27 07:38:06;;;;;;;3.42;1.45;;;;;;;26.34;49.77;101068.44;5072206;28;20059;-56
2023/07/27 07:40:37;;;;;;;3.95;1.50;;;;;;;26.39;49.61;101072.31;5059012;28;20400;-54
2023/07/27 07:43:06;;;;;;;3.40;1.67;;;;;;;26.37;49.98;101071.66;5066459;28;20044;-54
2023/07/27 07:45:34;;;;;;;2.72;1.30;;;;;;;26.32;49.92;101074.03;5062518;28;20095;-53
2023/07/27 07:48:01;;;;;;;2.30;1.00;;;;;;;26.32;50.06;101067.75;5072214;28;20518;-58
2023/07/27 07:50:29;;;;;;;2.92;1.10;;;;;;;26.33;49.81;101069.44;5069253;28;20048;-59
2023/07/27 07:52:56;;;;;;;4.45;1.27;;;;;;;26.31;49.87;101060.66;5066764;28;20059;-59
2023/07/27 07:55:23;;;;;;;2.90;1.13;;;;;;;26.29;49.93;101070.81;5062459;28;20037;-59
2023/07/27 07:57:51;;;;;;;2.85;1.25;;;;;;;26.27;50.06;101070.16;5072224;28;20419;-58
2023/07/27 08:00:18;;;;;;;2.63;1.10;;;;;;;26.26;50.45;101057.59;5069602;28;20053;-59
2023/07/27 08:02:45;;;;;;;5.05;1.38;;;;;;;26.26;50.44;101063.03;5066469;28;20407;-58
2023/07/27 08:05:13;;;;;;;2.05;0.95;;;;;;;26.24;50.33;101067.78;5075099;28;20381;-58
2023/07/27 08:07:41;;;;;;;4.40;1.35;;;;;;;26.24;50.41;101060.47;5059747;28;20048;-55
2023/07/27 08:10:09;;;;;;;2.78;1.17;;;;;;;26.31;50.33;101053.34;5068981;28;20049;-55
2023/07/27 08:12:36;;;;;;;2.80;1.00;;;;;;;26.36;50.34;101055.53;5072550;28;20049;-58
2023/07/27 08:15:05;;;;;;;2.65;1.42;;;;;;;26.35;50.41;101060.13;5070297;28;20041;-59
2023/07/27 08:17:33;;;;;;;2.88;1.15;;;;;;;26.38;50.36;101059.78;5060233;28;20076;-58
2023/07/27 08:20:03;;;;;;;3.42;1.45;;;;;;;26.40;50.31;101062.31;5069758;28;20385;-59
2023/07/27 08:22:31;;;;;;;2.40;0.82;;;;;;;26.43;50.13;101056.53;5066714;28;20052;-58
2023/07/27 08:24:58;;;;;;;4.05;1.48;;;;;;;26.47;50.10;101052.50;5072391;28;20058;-59
2023/07/27 08:27:45;;;;;;;4.03;1.75;;;;;;;26.48;49.94;101047.91;5069126;28;20047;-58
2023/07/27 08:30:13;;;;;;;4.88;1.33;;;;;;;26.44;49.87;101041.94;5059715;28;20045;-58
2023/07/27 08:32:40;;;;;;;3.30;1.27;;;;;;;26.42;49.95;101035.84;5069408;28;20044;-55
2023/07/27 08:35:08;;;;;;;2.50;0.93;;;;;;;26.45;49.90;101040.94;5069546;28;20068;-54
2023/07/27 08:37:36;;;;;;;3.55;1.13;;;;;;;26.47;49.95;101025.34;5061963;28;20060;-55
2023/07/27 08:40:03;;;;;;;2.80;1.15;;;;;;;26.49;50.13;101038.72;5066431;28;20405;-55
2023/07/27 08:42:31;;;;;;;4.90;1.30;;;;;;;26.57;49.51;101041.41;5069286;28;20052;-55
2023/07/27 08:45:02;;;;;;;4.72;1.10;;;;;;;26.65;49.44;101041.41;5065029;28;20420;-52
2023/07/27 08:47:30;;;;;;;2.40;1.10;;;;;;;26.67;49.45;101035.81;5061487;28;20413;-58
2023/07/27 08:49:58;;;;;;;4.13;1.45;;;;;;;26.77;48.81;101031.00;5073839;28;20432;-58
2023/07/27 08:52:27;;;;;;;3.55;1.25;;;;;;;26.80;48.50;101036.94;5061372;28;20057;-59
2023/07/27 08:54:54;;;;;;;4.07;1.48;;;;;;;26.86;48.25;101019.09;5070938;28;20500;-53
2023/07/27 08:57:22;;;;;;;3.45;1.45;;;;;;;26.87;48.35;101026.22;5062516;28;20064;-58
2023/07/27 08:59:50;;;;;;;5.55;1.50;;;;;;;26.94;48.38;101027.22;5064894;28;20060;-58
2023/07/27 09:02:18;;;;;;;2.40;1.13;;;;;;;26.88;48.45;101036.06;5056358;28;20096;-58
2023/07/27 09:04:45;;;;;;;2.42;1.13;;;;;;;26.86;48.39;101021.81;5070840;28;20056;-58
2023/07/27 09:07:13;;;;;;;2.30;1.05;;;;;;;26.86;48.53;101025.38;5062424;28;20044;-55
2023/07/27 09:09:40;;;;;;;3.85;1.55;;;;;;;26.89;48.66;101018.72;5070908;28;20045;-54
2023/07/27 09:12:08;;;;;;;3.80;1.77;;;;;;;26.98;47.89;101020.41;5059518;28;20064;-55
2023/07/27 09:14:38;;;;;;;3.45;1.35;;;;;;;26.95;48.18;101017.19;5071045;28;20045;-59
2023/07/27 09:17:07;;;;;;;2.83;1.17;;;;;;;26.96;48.09;101018.88;5062597;28;20040;-54
2023/07/27 09:19:39;;;;;;;3.00;1.48;;;;;;;26.99;48.25;101019.38;5068742;28;20056;-53
2023/07/27 09:22:07;;;;;;;4.63;1.98;;;;;;;27.08;47.09;101021.00;5059778;28;20052;-59
2023/07/27 09:24:35;;;;;;;3.20;1.40;;;;;;;27.02;47.23;101016.28;5071490;28;20052;-59
2023/07/27 09:27:09;;;;;;;2.97;1.63;;;;;;;27.01;47.61;101020.00;5062565;28;20052;-54
2023/07/27 09:29:36;;;;;;;3.15;1.10;;;;;;;27.02;47.39;101015.41;5066685;28;20053;-54
2023/07/27 09:32:09;;;;;;;2.78;1.40;;;;;;;27.04;47.37;101016.09;5059435;28;20504;-55
2023/07/27 09:34:36;;;;;;;4.40;1.45;;;;;;;27.09;46.97;101019.97;5071998;28;20049;-56
2023/07/27 09:37:05;;;;;;;2.17;0.90;;;;;;;27.13;47.05;101022.38;5065847;28;20501;-58
2023/07/27 09:39:42;;;;;;;3.70;1.70;;;;;;;27.19;46.50;101022.50;5068108;28;20044;-58
2023/07/27 09:42:10;;;;;;;3.28;1.55;;;;;;;27.20;46.03;101026.91;5059172;28;20048;-58
2023/07/27 09:44:49;;;;;;;2.50;1.30;;;;;;;27.14;46.39;101024.06;5067906;28;20049;-58
2023/07/27 09:47:29;;;;;;;2.88;1.08;;;;;;;27.11;46.79;101028.84;5055581;28;20041;-58
2023/07/27 09:50:01;;;;;;;2.92;1.30;;;;;;;27.13;46.91;101031.38;5070095;28;20047;-58
2023/07/27 09:52:30;;;;;;;2.85;1.52;;;;;;;27.17;47.07;101018.25;5067697;28;20045;-58
2023/07/27 09:54:58;;;;;;;3.10;1.60;;;;;;;27.20;46.41;101028.78;5065253;28;20400;-58
2023/07/27 09:57:27;;;;;;;4.25;1.67;;;;;;;27.21;46.61;101022.31;5059359;28;20512;-58
2023/07/27 09:59:54;;;;;;;3.72;1.35;;;;;;;27.21;46.48;101017.72;5069895;28;20048;-58
2023/07/27 10:02:22;;;;;;;2.13;0.98;;;;;;;27.20;46.44;101024.19;5061598;28;20040;-58
2023/07/27 10:04:58;;;;;;;3.42;1.10;;;;;;;27.19;46.71;101018.94;5067552;28;20044;-58
2023/07/27 10:07:27;;;;;;;3.42;1.23;;;;;;;27.20;46.86;101015.19;5058620;28;20056;-58
2023/07/27 10:10:32;;;;;;;2.50;1.25;;;;;;;27.19;46.60;101008.06;5072353;28;20071;-59
2023/07/27 10:13:10;;;;;;;2.47;0.93;;;;;;;27.19;46.75;101002.66;5069992;28;20052;-59
2023/07/27 10:15:42;;;;;;;3.50;1.15;;;;;;;27.20;46.68;100999.72;5062503;28;20692;-59
2023/07/27 10:18:14;;;;;;;3.40;1.52;;;;;;;27.23;46.46;101001.25;5061618;28;20044;-55
2023/07/27 10:20:42;;;;;;;3.27;1.37;;;;;;;27.20;46.50;100991.56;5070870;28;20407;-57
2023/07/27 10:23:13;;;;;;;2.63;1.00;;;;;;;27.16;46.61;100998.41;5058463;28;20274;-57
2023/07/27 10:25:55;;;;;;;2.88;1.10;;;;;;;27.13;46.97;100996.03;5068829;28;20059;-55
2023/07/27 10:28:39;;;;;;;3.47;1.30;;;;;;;27.11;47.06;100996.22;5064520;28;20041;-59
2023/07/27 10:31:25;;;;;;;2.13;1.05;;;;;;;27.09;47.37;100986.50;5070256;28;20051;-59
2023/07/27 10:34:02;;;;;;;4.57;1.63;;;;;;;27.08;47.10;100982.13;5060783;28;20060;-59
2023/07/27 10:37:05;;;;;;;4.05;1.30;;;;;;;27.05;47.21;100975.16;5058225;28;20110;-59
2023/07/27 10:39:46;;;;;;;3.58;1.45;;;;;;;27.03;47.39;100966.34;5066482;28;20051;-59
2023/07/27 10:42:25;;;;;;;3.22;1.30;;;;;;;27.03;47.48;100963.63;5065373;28;20118;-59
2023/07/27 10:44:57;;;;;;;2.72;1.38;;;;;;;27.09;47.25;100962.06;5057652;28;20496;-59
2023/07/27 10:47:26;;;;;;;2.35;1.13;;;;;;;27.09;47.24;100960.19;5060535;28;20040;-55
2023/07/27 10:49:57;;;;;;;3.65;1.50;;;;;;;27.14;46.97;100961.53;5066012;28;20049;-55
2023/07/27 10:52:31;;;;;;;3.28;1.27;;;;;;;27.20;46.95;100955.41;5059213;28;20048;-54
2023/07/27 10:54:59;;;;;;;3.55;1.58;;;;;;;27.20;46.51;100952.69;5071678;28;20049;-55
2023/07/27 10:57:29;;;;;;;3.08;1.45;;;;;;;27.38;46.01;100949.66;5066142;28;20041;-55
2023/07/27 10:59:58;;;;;;;2.28;1.10;;;;;;;27.32;45.58;100946.63;5064973;28;20040;-55
2023/07/27 11:02:32;;;;;;;3.05;1.35;;;;;;;27.26;45.61;100950.06;5057976;28;20052;-56
2023/07/27 11:05:04;;;;;;;2.58;1.15;;;;;;;27.25;45.68;100947.53;5071379;28;20051;-57
2023/07/27 11:07:36;;;;;;;2.47;1.20;;;;;;;27.21;46.14;100941.63;5054871;28;20404;-58
2023/07/27 11:10:15;;;;;;;3.80;1.27;;;;;;;27.18;45.95;100941.97;5071397;28;20048;-58
2023/07/27 11:12:48;;;;;;;2.58;1.13;;;;;;;27.17;45.87;100934.84;5069132;28;20048;-58
2023/07/27 11:15:19;;;;;;;2.15;1.20;;;;;;;27.17;45.64;100936.72;5065687;28;20404;-58
2023/07/27 11:17:48;;;;;;;2.70;1.17;;;;;;;27.18;45.51;100946.56;5065484;28;20048;-58
2023/07/27 11:20:18;;;;;;;2.97;1.05;;;;;;;27.16;45.07;100940.47;5072969;28;20051;-58
2023/07/27 11:22:50;;;;;;;3.08;1.30;;;;;;;27.14;44.67;100945.25;5064030;28;20526;-58
2023/07/27 11:25:18;;;;;;;2.42;1.10;;;;;;;27.12;44.25;100945.44;5071720;28;20530;-58
2023/07/27 11:27:50;;;;;;;2.38;1.05;;;;;;;27.11;44.02;100935.59;5061804;28;20041;-59
2023/07/27 11:30:21;;;;;;;2.63;1.30;;;;;;;27.10;44.03;100932.03;5072752;28;20047;-59
2023/07/27 11:33:03;;;;;;;2.58;1.35;;;;;;;27.09;43.74;100930.28;5064221;28;20045;-59
2023/07/27 11:35:31;;;;;;;3.88;1.45;;;;;;;27.08;43.75;100925.88;5069002;28;20056;-59